AIG weather

Langlade County Airport
Antigo, Wisconsin, United States

Public forecast

Using degrees Fahrenheit for public forecast. Weather courtesy of forecast.io.

METAR (pilot weather report)

Retrieved 2019/08/21 08:35 UTC (23 minutes ago):

KAIG 210835Z AUTO 33004KT 10SM SCT045 SCT050 SCT085 16/16 A2996 RMK AO2 P0001 T01610161

TAF (pilot weather forecast)

Closest forecast is Wausau Downtown Airport, 25.8 nm (47.8 km) WSW. Retrieved 2019/08/21 06:27 UTC (3 hours ago):

TAF KAUW 210525Z 2106/2206 24005KT P6SM SCT035 BKN050 TEMPO 2106/2109 -SHRA BKN035 FM210900 33006KT P6SM SCT030 FM211500 32008G15KT P6SM SCT035 FM212300 33005KT P6SM SKC